Time;durP1;ratioP1;P1;durP2;ratioP2;P2;SDS_P1;SDS_P2;PMS_P1;PMS_P2;Temp;Humidity;BMP_temperature;BMP_pressure;BME280_temperature;BME280_humidity;BME280_pressure;Samples;Min_cycle;Max_cycle;Signal;HPM_P1;HPM_P2
2023/05/11 00:01:03;;;;;;;4.75;2.20;;;10.70;99.90;;;;;;5003347;28;20057;-79
2023/05/11 00:03:49;;;;;;;6.38;2.30;;;10.80;99.90;;;;;;5010542;28;20088;-79
2023/05/11 00:06:35;;;;;;;6.03;2.33;;;10.70;99.90;;;;;;4997244;28;20053;-80
2023/05/11 00:09:21;;;;;;;10.07;2.78;;;10.80;99.90;;;;;;5010387;28;20053;-80
2023/05/11 00:12:07;;;;;;;6.68;2.65;;;10.80;99.90;;;;;;5011185;28;20410;-80
2023/05/11 00:14:54;;;;;;;5.60;2.85;;;10.80;99.90;;;;;;4993646;28;20184;-79
2023/05/11 00:17:40;;;;;;;7.53;3.00;;;10.80;99.90;;;;;;5009736;28;20046;-79
2023/05/11 00:20:26;;;;;;;6.47;2.78;;;10.70;99.90;;;;;;4992393;28;20099;-79
2023/05/11 00:23:12;;;;;;;4.90;2.75;;;10.70;99.90;;;;;;5010219;28;20046;-79
2023/05/11 00:25:58;;;;;;;5.47;2.28;;;10.80;99.90;;;;;;4995949;28;20057;-79
2023/05/11 00:28:44;;;;;;;5.43;2.50;;;10.70;99.90;;;;;;5009812;28;20417;-79
2023/05/11 00:31:31;;;;;;;4.20;2.20;;;10.70;99.90;;;;;;5010734;28;20448;-78
2023/05/11 00:34:17;;;;;;;6.70;2.63;;;10.70;99.90;;;;;;4992463;28;20060;-78
2023/05/11 00:37:03;;;;;;;5.15;2.30;;;10.70;99.90;;;;;;5011529;28;20657;-79
2023/05/11 00:39:49;;;;;;;5.32;2.75;;;10.70;99.90;;;;;;4993330;28;20049;-79
2023/05/11 00:42:36;;;;;;;5.35;2.67;;;10.70;99.90;;;;;;5010976;28;20049;-79
2023/05/11 00:45:22;;;;;;;7.13;2.83;;;10.70;99.90;;;;;;5009484;28;20401;-79
2023/05/11 00:48:09;;;;;;;5.38;2.58;;;10.60;99.90;;;;;;5008971;28;20119;-78
2023/05/11 00:50:55;;;;;;;5.20;2.28;;;10.60;99.90;;;;;;5011181;28;20050;-79
2023/05/11 00:53:41;;;;;;;6.07;2.97;;;10.60;99.90;;;;;;5009085;28;20064;-79
2023/05/11 00:56:27;;;;;;;6.50;3.05;;;10.70;99.90;;;;;;4993107;28;20053;-78
2023/05/11 00:59:14;;;;;;;8.80;2.85;;;10.70;99.90;;;;;;5010891;28;20053;-78
2023/05/11 01:02:01;;;;;;;5.97;3.03;;;10.60;99.90;;;;;;4996631;28;20505;-78
2023/05/11 01:04:47;;;;;;;5.43;2.90;;;10.60;99.90;;;;;;5014789;28;20053;-78
2023/05/11 01:07:59;;;;;;;6.68;2.90;;;10.70;99.90;;;;;;4996836;28;20164;-78
2023/05/11 01:10:57;;;;;;;7.20;3.03;;;10.70;99.90;;;;;;4996306;28;20061;-78
2023/05/11 01:13:50;;;;;;;7.13;3.00;;;10.60;99.90;;;;;;4997828;28;20517;-79
2023/05/11 01:16:39;;;;;;;5.60;3.22;;;10.60;99.90;;;;;;5014570;28;20152;-79
2023/05/11 01:19:45;;;;;;;4.95;2.58;;;10.60;99.90;;;;;;5012460;28;20057;-79
2023/05/11 01:23:13;;;;;;;5.10;2.13;;;10.70;99.90;;;;;;5014137;28;20851;-79
2023/05/11 01:26:10;;;;;;;6.03;2.20;;;10.60;99.90;;;;;;5007277;28;20053;-79
2023/05/11 01:29:17;;;;;;;5.50;3.05;;;10.50;99.90;;;;;;5014345;28;20046;-79
2023/05/11 01:32:09;;;;;;;6.40;3.63;;;10.50;99.90;;;;;;4996700;28;20422;-77
2023/05/11 01:35:13;;;;;;;6.38;3.38;;;10.50;99.90;;;;;;4994751;28;20060;-78
2023/05/11 01:38:02;;;;;;;5.85;3.05;;;10.60;99.90;;;;;;5013803;28;20057;-78
2023/05/11 01:40:54;;;;;;;6.20;3.42;;;10.60;99.90;;;;;;5013923;28;20144;-78
2023/05/11 01:43:43;;;;;;;6.03;3.10;;;10.60;99.90;;;;;;5013771;28;20565;-79
2023/05/11 01:46:32;;;;;;;5.18;2.53;;;10.50;99.90;;;;;;4996236;28;20069;-79
2023/05/11 01:49:20;;;;;;;5.40;2.50;;;10.60;99.90;;;;;;5012826;28;20088;-79
2023/05/11 01:52:08;;;;;;;6.05;3.10;;;10.60;99.90;;;;;;5012948;28;20410;-80
2023/05/11 01:54:56;;;;;;;5.60;2.60;;;10.50;99.90;;;;;;4993102;28;20050;-80
2023/05/11 01:57:44;;;;;;;8.80;2.78;;;10.60;99.90;;;;;;4994207;28;20880;-79
2023/05/11 02:00:32;;;;;;;6.15;3.40;;;10.60;99.90;;;;;;4995161;28;20525;-79
2023/05/11 02:03:19;;;;;;;12.75;3.72;;;10.50;99.90;;;;;;5012703;28;20495;-80
2023/05/11 02:06:06;;;;;;;17.08;3.40;;;10.50;99.90;;;;;;4982009;28;20091;-80
2023/05/11 02:08:53;;;;;;;23.08;3.30;;;10.50;99.90;;;;;;5012307;28;20058;-79
2023/05/11 02:11:41;;;;;;;4.32;2.00;;;10.50;99.90;;;;;;5011540;28;20422;-79
2023/05/11 02:14:32;;;;;;;10.38;3.42;;;10.40;99.90;;;;;;4996210;28;20046;-80
2023/05/11 02:17:21;;;;;;;5.38;2.70;;;10.40;99.90;;;;;;5012333;28;20085;-80
2023/05/11 02:20:09;;;;;;;6.07;2.88;;;10.40;99.90;;;;;;4994820;28;20064;-80
2023/05/11 02:22:56;;;;;;;7.53;2.58;;;10.40;99.90;;;;;;4995781;28;20445;-78
2023/05/11 02:25:43;;;;;;;4.90;2.67;;;10.40;99.90;;;;;;5011956;28;20200;-78
2023/05/11 02:28:30;;;;;;;21.33;3.03;;;10.40;99.90;;;;;;5011763;28;20080;-79
2023/05/11 02:31:19;;;;;;;15.02;2.90;;;10.30;99.90;;;;;;4995111;28;20050;-79
2023/05/11 02:34:13;;;;;;;6.10;2.13;;;10.30;99.90;;;;;;5006837;28;20069;-79
2023/05/11 02:37:03;;;;;;;14.07;2.53;;;10.30;99.90;;;;;;4995467;28;20050;-79
2023/05/11 02:39:56;;;;;;;61.95;5.35;;;10.30;99.90;;;;;;4987120;28;20054;-79
2023/05/11 02:42:47;;;;;;;52.92;4.93;;;10.30;99.90;;;;;;5011626;28;20057;-79
2023/05/11 02:45:35;;;;;;;40.17;4.20;;;10.20;99.90;;;;;;5012074;28;20112;-79
2023/05/11 02:48:28;;;;;;;147.52;8.77;;;10.20;99.90;;;;;;5012376;28;20060;-79
2023/05/11 02:51:16;;;;;;;52.65;5.28;;;10.10;99.90;;;;;;5012048;28;20046;-79
2023/05/11 02:54:05;;;;;;;58.67;5.30;;;10.10;99.90;;;;;;5011697;28;20123;-78
2023/05/11 02:56:53;;;;;;;92.53;6.53;;;10.10;99.90;;;;;;5011679;28;20111;-78
2023/05/11 02:59:39;;;;;;;68.10;5.45;;;10.10;99.90;;;;;;5017365;28;20050;-78
2023/05/11 03:02:26;;;;;;;31.00;3.92;;;10.10;99.90;;;;;;5012103;28;20054;-79
2023/05/11 03:05:12;;;;;;;36.33;4.10;;;10.10;99.90;;;;;;5011315;28;20205;-79
2023/05/11 03:07:59;;;;;;;9.98;2.53;;;10.10;99.90;;;;;;4994450;28;20167;-79
2023/05/11 03:10:46;;;;;;;7.70;2.50;;;10.10;99.90;;;;;;5011431;28;20081;-79
2023/05/11 03:13:32;;;;;;;17.73;3.17;;;10.10;99.90;;;;;;4994463;28;20829;-79
2023/05/11 03:16:20;;;;;;;30.75;3.92;;;10.20;99.90;;;;;;5012262;28;20042;-79
2023/05/11 03:19:07;;;;;;;25.95;3.13;;;10.20;99.90;;;;;;4994259;28;20096;-79
2023/05/11 03:21:54;;;;;;;25.52;3.00;;;10.20;99.90;;;;;;5010796;28;20057;-80
2023/05/11 03:24:41;;;;;;;7.07;2.50;;;10.20;99.90;;;;;;4993676;28;20141;-80
2023/05/11 03:27:28;;;;;;;19.92;4.03;;;10.20;99.90;;;;;;5011292;28;20049;-79
2023/05/11 03:30:16;;;;;;;18.70;3.40;;;10.20;99.90;;;;;;4981771;28;20557;-79
2023/05/11 03:33:02;;;;;;;20.35;3.83;;;10.20;99.90;;;;;;5012123;28;20050;-79
2023/05/11 03:35:50;;;;;;;7.18;3.40;;;10.20;99.90;;;;;;4980760;28;20054;-79
2023/05/11 03:38:37;;;;;;;5.57;2.95;;;10.10;99.90;;;;;;5010860;28;20053;-80
2023/05/11 03:41:26;;;;;;;18.50;4.25;;;10.20;99.90;;;;;;5010466;28;20054;-80
2023/05/11 03:44:13;;;;;;;32.17;4.72;;;10.20;99.90;;;;;;5010338;28;20057;-80
2023/05/11 03:47:02;;;;;;;28.98;4.38;;;10.20;99.90;;;;;;5011059;28;20049;-79
2023/05/11 03:49:50;;;;;;;8.00;2.90;;;10.30;99.90;;;;;;4993690;28;20046;-79
2023/05/11 03:52:36;;;;;;;9.80;3.17;;;10.20;99.90;;;;;;5010951;28;20046;-79
2023/05/11 03:55:23;;;;;;;17.65;3.67;;;10.30;99.90;;;;;;4991683;28;20053;-79
2023/05/11 03:58:09;;;;;;;13.55;3.35;;;10.30;99.90;;;;;;4995615;28;20049;-80
2023/05/11 04:00:56;;;;;;;76.72;6.50;;;10.30;99.90;;;;;;5003108;28;20151;-79
2023/05/11 04:03:49;;;;;;;28.17;4.00;;;10.30;99.90;;;;;;4993118;28;20490;-79
2023/05/11 04:06:35;;;;;;;26.88;4.20;;;10.20;99.90;;;;;;5009354;28;20063;-79
2023/05/11 04:09:21;;;;;;;18.75;4.10;;;10.30;99.90;;;;;;4995681;28;20076;-80
2023/05/11 04:12:08;;;;;;;33.95;4.00;;;10.20;99.90;;;;;;5011363;28;20506;-79
2023/05/11 04:14:54;;;;;;;32.17;4.72;;;10.20;99.90;;;;;;5011237;28;20490;-80
2023/05/11 04:17:40;;;;;;;22.08;4.00;;;10.30;99.90;;;;;;4991359;28;20583;-80
2023/05/11 04:20:26;;;;;;;15.43;3.30;;;10.20;99.90;;;;;;5010743;28;20516;-79
2023/05/11 04:23:12;;;;;;;14.90;3.92;;;10.30;99.90;;;;;;4993341;28;20584;-78
2023/05/11 04:25:58;;;;;;;61.78;6.13;;;10.30;99.90;;;;;;4988504;28;20046;-79
2023/05/11 04:28:44;;;;;;;23.98;4.63;;;10.30;99.90;;;;;;5011080;28;20493;-79
2023/05/11 04:31:31;;;;;;;15.05;4.82;;;10.30;99.90;;;;;;4993051;28;20053;-79
2023/05/11 04:34:17;;;;;;;11.35;4.70;;;10.20;99.90;;;;;;5009701;28;20042;-78
2023/05/11 04:37:06;;;;;;;25.23;5.80;;;10.20;99.90;;;;;;4984063;28;20058;-79
2023/05/11 04:39:52;;;;;;;16.35;5.22;;;10.20;99.90;;;;;;5010738;28;20141;-78
2023/05/11 04:42:38;;;;;;;11.95;5.25;;;10.30;99.90;;;;;;4991914;28;20062;-79
2023/05/11 04:45:24;;;;;;;10.15;4.95;;;10.40;99.90;;;;;;5010422;28;20125;-80
2023/05/11 04:48:10;;;;;;;11.70;5.88;;;10.40;99.90;;;;;;5010181;28;20085;-79
2023/05/11 04:50:56;;;;;;;18.75;5.93;;;10.50;99.90;;;;;;4992870;28;20065;-79
2023/05/11 04:53:42;;;;;;;11.77;5.28;;;10.50;99.90;;;;;;5010008;28;20131;-79
2023/05/11 04:56:28;;;;;;;17.98;6.75;;;10.50;99.90;;;;;;4972826;28;20125;-79
2023/05/11 04:59:14;;;;;;;11.90;5.40;;;10.50;99.90;;;;;;4990477;28;20449;-79
2023/05/11 05:02:01;;;;;;;11.98;5.60;;;10.60;99.90;;;;;;4959981;28;20062;-79
2023/05/11 05:04:47;;;;;;;32.28;7.07;;;10.60;99.90;;;;;;4989675;28;20050;-79
2023/05/11 05:07:33;;;;;;;19.65;5.55;;;10.60;99.90;;;;;;4989588;28;20062;-80
2023/05/11 05:10:19;;;;;;;25.33;6.90;;;10.50;99.90;;;;;;4976081;28;20096;-80
2023/05/11 05:13:05;;;;;;;26.10;7.25;;;10.60;99.90;;;;;;4990064;28;20391;-78
2023/05/11 05:15:51;;;;;;;31.70;6.07;;;10.60;99.90;;;;;;4990201;28;20054;-79
2023/05/11 05:18:37;;;;;;;20.48;7.82;;;10.60;99.90;;;;;;4960362;28;20113;-80
2023/05/11 05:21:23;;;;;;;15.88;7.45;;;10.70;99.90;;;;;;4990095;28;20474;-79
2023/05/11 05:24:11;;;;;;;37.45;8.68;;;10.70;99.90;;;;;;4976311;28;20046;-79
2023/05/11 05:26:57;;;;;;;15.23;7.22;;;10.80;99.90;;;;;;4989456;28;20042;-78
2023/05/11 05:29:43;;;;;;;35.45;8.90;;;10.80;99.90;;;;;;4990322;28;20066;-79
2023/05/11 05:32:29;;;;;;;90.05;12.05;;;10.90;99.90;;;;;;4972126;28;20097;-79
2023/05/11 05:35:15;;;;;;;76.90;10.23;;;10.80;99.90;;;;;;4990498;28;20358;-79
2023/05/11 05:38:01;;;;;;;63.20;11.13;;;10.80;99.90;;;;;;4973275;28;20173;-79
2023/05/11 05:40:47;;;;;;;31.73;9.20;;;10.80;99.90;;;;;;4990893;28;20101;-79
2023/05/11 05:43:33;;;;;;;19.15;8.38;;;10.80;99.90;;;;;;4975732;28;20093;-79
2023/05/11 05:46:19;;;;;;;22.38;8.57;;;10.80;99.90;;;;;;4991835;28;20050;-79
2023/05/11 05:49:06;;;;;;;16.05;7.70;;;10.90;99.90;;;;;;4978738;28;20064;-79
2023/05/11 05:51:52;;;;;;;16.55;8.38;;;11.00;99.90;;;;;;4993467;28;20046;-79
2023/05/11 05:54:38;;;;;;;18.90;10.00;;;11.10;99.90;;;;;;4998901;28;20403;-79
2023/05/11 05:57:24;;;;;;;20.33;9.23;;;11.10;99.90;;;;;;5013949;28;20120;-79
2023/05/11 06:00:10;;;;;;;21.33;10.38;;;11.20;99.90;;;;;;4995392;28;20566;-79
2023/05/11 06:02:56;;;;;;;19.48;9.98;;;11.30;99.90;;;;;;5014065;28;20042;-79
2023/05/11 06:05:42;;;;;;;15.90;9.35;;;11.30;99.90;;;;;;4995242;28;20069;-79
2023/05/11 06:08:28;;;;;;;16.45;10.38;;;11.30;99.90;;;;;;5012569;28;20050;-79
2023/05/11 06:11:15;;;;;;;23.40;12.05;;;11.40;99.90;;;;;;4996288;28;20092;-79
2023/05/11 06:14:01;;;;;;;20.33;12.45;;;11.40;99.90;;;;;;5012948;28;20089;-79
2023/05/11 06:16:48;;;;;;;21.73;11.07;;;11.40;99.90;;;;;;4994710;28;20053;-79
2023/05/11 06:19:34;;;;;;;17.02;10.27;;;11.50;99.90;;;;;;4994992;28;20105;-80
2023/05/11 06:22:20;;;;;;;14.32;9.93;;;11.50;99.90;;;;;;4995519;28;20422;-79
2023/05/11 06:25:07;;;;;;;11.73;7.55;;;11.60;99.90;;;;;;4997390;28;20046;-78
2023/05/11 06:27:53;;;;;;;11.70;7.13;;;11.60;99.90;;;;;;4999678;28;20070;-78
2023/05/11 06:30:39;;;;;;;15.10;8.60;;;11.60;99.90;;;;;;4994874;28;20050;-80
2023/05/11 06:33:25;;;;;;;14.38;7.60;;;11.70;99.90;;;;;;4981498;28;20054;-79
2023/05/11 06:36:11;;;;;;;10.63;6.43;;;11.80;99.90;;;;;;5012479;28;20498;-80
2023/05/11 06:38:57;;;;;;;10.98;6.78;;;11.80;99.90;;;;;;4974186;28;20115;-79
2023/05/11 06:41:44;;;;;;;12.20;6.88;;;11.80;99.90;;;;;;5013417;28;20413;-79
2023/05/11 06:44:30;;;;;;;14.43;7.47;;;11.90;99.90;;;;;;5011540;28;20053;-79
2023/05/11 06:47:16;;;;;;;10.32;5.90;;;11.90;99.90;;;;;;4997390;28;20414;-80
2023/05/11 06:50:03;;;;;;;10.48;6.43;;;11.90;99.90;;;;;;4994622;28;20568;-80
2023/05/11 06:52:49;;;;;;;8.75;5.50;;;11.90;99.90;;;;;;5011581;28;20115;-79
2023/05/11 06:55:35;;;;;;;9.38;5.07;;;11.90;99.90;;;;;;5012054;28;20042;-80
2023/05/11 06:58:21;;;;;;;8.57;4.78;;;12.00;99.90;;;;;;4994184;28;20065;-80
2023/05/11 07:01:07;;;;;;;8.45;4.88;;;12.00;99.90;;;;;;5011972;28;20144;-80
2023/05/11 07:03:54;;;;;;;8.40;4.82;;;12.00;99.90;;;;;;4995016;28;20056;-78
2023/05/11 07:06:40;;;;;;;7.63;4.95;;;12.10;99.90;;;;;;5011727;28;20053;-79
2023/05/11 07:09:27;;;;;;;8.40;4.80;;;12.10;99.90;;;;;;5012596;28;20049;-79
2023/05/11 07:12:13;;;;;;;9.68;4.05;;;12.10;99.90;;;;;;5010746;28;20062;-79
2023/05/11 07:14:59;;;;;;;6.03;4.05;;;12.20;99.90;;;;;;5012477;28;20060;-80
2023/05/11 07:17:46;;;;;;;6.65;3.97;;;12.20;99.90;;;;;;5010048;28;20532;-79
2023/05/11 07:20:35;;;;;;;5.55;3.35;;;12.20;99.90;;;;;;4993999;28;20467;-80
2023/05/11 07:23:21;;;;;;;6.47;2.78;;;12.30;99.90;;;;;;4993956;28;20089;-80
2023/05/11 07:26:08;;;;;;;5.68;3.10;;;12.30;99.90;;;;;;4980136;28;20755;-80
2023/05/11 07:28:54;;;;;;;6.10;3.80;;;12.40;99.90;;;;;;4992455;28;20046;-80
2023/05/11 07:31:41;;;;;;;5.53;3.17;;;12.40;99.90;;;;;;5011977;28;20050;-80
2023/05/11 07:34:27;;;;;;;6.10;3.67;;;12.40;99.90;;;;;;4997136;28;20050;-80
2023/05/11 07:37:15;;;;;;;6.70;3.20;;;12.50;99.90;;;;;;5011431;28;20418;-80
2023/05/11 07:40:01;;;;;;;5.55;3.20;;;12.50;99.90;;;;;;5011138;28;20053;-80
2023/05/11 07:42:47;;;;;;;7.05;4.50;;;12.50;99.90;;;;;;4993198;28;20057;-80
2023/05/11 07:45:33;;;;;;;7.50;4.00;;;12.50;99.90;;;;;;4980764;28;20057;-80
2023/05/11 07:48:20;;;;;;;7.82;5.22;;;12.50;99.90;;;;;;4992344;28;20049;-80
2023/05/11 07:51:06;;;;;;;10.23;5.32;;;12.60;99.90;;;;;;5010076;28;20568;-80
2023/05/11 07:53:52;;;;;;;9.18;5.13;;;12.60;99.90;;;;;;5008960;28;20996;-80
2023/05/11 07:56:38;;;;;;;9.63;5.03;;;12.60;99.90;;;;;;4993707;28;20061;-80
2023/05/11 07:59:24;;;;;;;12.27;5.75;;;12.60;99.90;;;;;;5011073;28;20133;-80
2023/05/11 08:02:11;;;;;;;12.70;5.10;;;12.70;99.90;;;;;;4996667;28;20068;-81
2023/05/11 08:04:57;;;;;;;9.85;4.57;;;12.80;99.90;;;;;;4993981;28;20049;-81
2023/05/11 08:07:43;;;;;;;8.77;4.70;;;12.80;99.90;;;;;;5012054;28;20175;-80
2023/05/11 08:10:30;;;;;;;9.95;4.40;;;12.80;99.90;;;;;;4992979;28;20086;-80
2023/05/11 08:13:17;;;;;;;7.93;4.85;;;12.80;99.90;;;;;;5011011;28;20050;-80
2023/05/11 08:16:04;;;;;;;7.97;5.05;;;12.90;99.90;;;;;;5010558;28;20576;-80
2023/05/11 08:18:50;;;;;;;6.97;4.72;;;12.90;99.90;;;;;;5011548;28;20557;-80
2023/05/11 08:21:36;;;;;;;8.43;4.78;;;13.00;99.90;;;;;;4992360;28;20057;-80
2023/05/11 08:24:22;;;;;;;7.03;4.30;;;13.00;99.90;;;;;;5010197;28;20068;-80
2023/05/11 08:27:08;;;;;;;7.72;4.63;;;13.00;99.90;;;;;;4996841;28;20046;-80
2023/05/11 08:29:55;;;;;;;6.72;3.55;;;13.00;99.90;;;;;;5010683;28;20085;-81
2023/05/11 08:32:41;;;;;;;6.28;4.00;;;13.10;99.90;;;;;;4980245;28;20050;-80
2023/05/11 08:35:27;;;;;;;5.65;3.65;;;13.10;99.90;;;;;;4996798;28;20174;-80
2023/05/11 08:38:13;;;;;;;5.97;3.15;;;13.20;99.90;;;;;;4991893;28;20053;-80
2023/05/11 08:41:01;;;;;;;5.55;2.80;;;13.30;99.90;;;;;;5011267;28;20132;-80
2023/05/11 08:43:47;;;;;;;5.03;2.80;;;13.30;99.90;;;;;;4992451;28;20057;-80
2023/05/11 08:46:36;;;;;;;5.80;2.92;;;13.30;99.90;;;;;;4993083;28;20053;-78
2023/05/11 08:49:23;;;;;;;4.70;2.95;;;13.30;99.90;;;;;;5011406;28;20053;-78
2023/05/11 08:52:11;;;;;;;5.00;2.72;;;13.30;99.90;;;;;;5011463;28;20502;-80
2023/05/11 08:54:57;;;;;;;4.57;2.22;;;13.40;99.90;;;;;;5001559;28;20066;-80
2023/05/11 08:57:45;;;;;;;5.68;2.42;;;13.40;99.90;;;;;;4990791;28;20062;-80
2023/05/11 09:00:32;;;;;;;3.83;2.13;;;13.50;99.90;;;;;;4973461;28;20046;-80
2023/05/11 09:03:20;;;;;;;3.70;2.10;;;13.50;99.90;;;;;;4990258;28;20057;-79
2023/05/11 09:06:07;;;;;;;5.35;2.10;;;13.60;99.90;;;;;;4990953;28;20061;-79
2023/05/11 09:08:54;;;;;;;4.97;2.00;;;13.60;99.90;;;;;;4990230;28;20557;-79
2023/05/11 09:11:40;;;;;;;3.75;1.80;;;13.60;99.90;;;;;;4990133;28;20085;-79
2023/05/11 09:14:26;;;;;;;3.67;1.85;;;13.80;99.90;;;;;;4973526;28;20061;-80
2023/05/11 09:17:12;;;;;;;4.63;1.70;;;13.80;99.90;;;;;;4990045;28;20046;-79
2023/05/11 09:20:01;;;;;;;3.80;1.67;;;13.80;99.90;;;;;;4973081;28;20054;-79
2023/05/11 09:22:47;;;;;;;3.47;1.77;;;14.00;99.90;;;;;;4994064;28;20508;-80
2023/05/11 09:25:33;;;;;;;4.60;1.73;;;14.20;99.90;;;;;;4978110;28;20120;-80
2023/05/11 09:28:21;;;;;;;4.28;1.70;;;14.40;99.90;;;;;;4994544;28;20053;-80
2023/05/11 09:31:07;;;;;;;4.70;1.50;;;14.60;99.90;;;;;;4978460;28;20051;-80
2023/05/11 09:34:08;;;;;;;2.90;1.23;;;14.80;99.90;;;;;;4994166;28;20046;-79
2023/05/11 09:36:55;;;;;;;2.70;1.48;;;15.00;99.90;;;;;;4993561;28;20502;-79
2023/05/11 09:39:42;;;;;;;3.25;1.30;;;15.10;99.90;;;;;;4994184;28;20050;-79
2023/05/11 09:42:29;;;;;;;5.55;1.67;;;15.20;99.90;;;;;;4994667;28;20050;-79
2023/05/11 09:45:43;;;;;;;4.03;1.60;;;15.30;99.90;;;;;;4976301;28;20117;-79
2023/05/11 09:48:31;;;;;;;4.80;1.52;;;15.50;99.90;;;;;;4993627;28;20052;-78
2023/05/11 09:51:31;;;;;;;5.10;1.88;;;15.60;99.90;;;;;;4976551;28;20136;-78
2023/05/11 09:54:19;;;;;;;2.30;1.40;;;15.70;99.90;;;;;;4996310;28;20057;-79
2023/05/11 09:57:07;;;;;;;4.20;1.80;;;16.00;99.90;;;;;;5013261;28;20058;-79
2023/05/11 09:59:55;;;;;;;3.20;1.65;;;16.00;99.90;;;;;;5014085;28;20046;-80
2023/05/11 10:02:42;;;;;;;4.45;2.08;;;16.10;99.90;;;;;;5013637;28;20058;-80
2023/05/11 10:05:30;;;;;;;3.60;2.20;;;16.30;99.90;;;;;;4997271;28;20053;-79
2023/05/11 10:08:29;;;;;;;4.30;2.10;;;16.30;99.90;;;;;;4995781;28;20810;-78
2023/05/11 10:11:21;;;;;;;3.00;1.60;;;16.30;99.90;;;;;;4999854;28;20042;-79
2023/05/11 10:14:09;;;;;;;4.60;1.85;;;16.50;99.90;;;;;;5013729;28;20145;-79
2023/05/11 10:16:57;;;;;;;3.53;2.03;;;16.50;99.90;;;;;;4995062;28;20058;-79
2023/05/11 10:19:43;;;;;;;3.35;1.60;;;16.60;99.90;;;;;;5013629;28;20173;-78
2023/05/11 10:22:32;;;;;;;3.45;1.58;;;16.80;99.90;;;;;;4995439;28;20056;-77
2023/05/11 10:25:25;;;;;;;1.85;0.95;;;17.00;99.90;;;;;;4993901;28;20399;-79
2023/05/11 10:28:12;;;;;;;4.50;1.40;;;17.20;99.90;;;;;;4993785;28;20046;-79
2023/05/11 10:30:59;;;;;;;2.55;1.42;;;17.70;99.90;;;;;;4982733;28;20054;-80
2023/05/11 10:33:47;;;;;;;3.78;1.60;;;18.00;99.90;;;;;;4994873;28;20472;-79
2023/05/11 10:36:33;;;;;;;3.05;1.35;;;18.30;99.90;;;;;;4994907;28;20046;-79
2023/05/11 10:39:20;;;;;;;3.80;1.33;;;18.40;99.90;;;;;;4982944;28;20072;-79
2023/05/11 10:42:38;;;;;;;6.13;1.80;;;18.50;99.90;;;;;;5012850;28;20050;-79
2023/05/11 10:45:36;;;;;;;5.13;1.45;;;18.70;99.90;;;;;;4994680;28;20140;-78
2023/05/11 10:48:47;;;;;;;3.97;1.85;;;18.80;99.90;;;;;;4994778;28;20052;-79
2023/05/11 10:52:22;;;;;;;3.05;1.50;;;18.80;99.90;;;;;;4993692;28;20085;-79
2023/05/11 10:55:20;;;;;;;6.00;2.15;;;18.80;99.90;;;;;;4978612;28;20062;-80
2023/05/11 10:58:09;;;;;;;3.30;1.60;;;18.60;99.90;;;;;;4995101;28;20050;-80
2023/05/11 11:01:17;;;;;;;3.63;1.48;;;18.50;99.90;;;;;;5010826;28;20103;-79
2023/05/11 11:04:05;;;;;;;2.83;1.45;;;18.70;99.90;;;;;;4995300;28;20104;-79
2023/05/11 11:07:05;;;;;;;3.13;1.55;;;18.70;99.90;;;;;;4999165;28;20085;-79
2023/05/11 11:09:56;;;;;;;3.72;1.23;;;18.40;99.90;;;;;;4995379;28;20621;-79
2023/05/11 11:13:01;;;;;;;2.75;1.40;;;18.30;99.90;;;;;;4995546;28;20046;-78
2023/05/11 11:15:55;;;;;;;;;;;18.20;99.90;;;;;;4994293;28;20821;-79
2023/05/11 11:18:44;;;;;;;2.55;1.40;;;18.20;99.90;;;;;;4994564;28;20019;-79
2023/05/11 11:21:39;;;;;;;2.42;1.20;;;18.30;99.90;;;;;;4981618;28;20623;-79
2023/05/11 11:24:46;;;;;;;2.78;1.52;;;18.30;99.90;;;;;;5009160;28;20576;-79
2023/05/11 11:27:47;;;;;;;3.40;1.88;;;18.10;99.90;;;;;;5011721;28;20057;-81
2023/05/11 11:30:36;;;;;;;4.25;2.33;;;17.90;99.90;;;;;;5011773;28;20413;-80
2023/05/11 11:33:23;;;;;;;4.38;1.67;;;18.00;99.90;;;;;;4980736;28;20065;-80
2023/05/11 11:36:09;;;;;;;3.53;1.85;;;18.30;99.90;;;;;;4980248;28;20057;-80
2023/05/11 11:38:59;;;;;;;3.75;1.50;;;18.40;99.90;;;;;;4996949;28;20141;-80
2023/05/11 11:41:57;;;;;;;2.60;1.48;;;18.40;99.90;;;;;;5010348;28;20060;-80
2023/05/11 11:44:45;;;;;;;3.75;1.83;;;18.40;99.90;;;;;;4993310;28;20080;-80
2023/05/11 11:47:31;;;;;;;6.18;1.40;;;18.40;99.90;;;;;;5010933;28;20053;-80
2023/05/11 11:50:18;;;;;;;2.88;1.65;;;18.50;99.90;;;;;;5009858;28;20054;-79
2023/05/11 11:53:08;;;;;;;4.40;1.88;;;18.70;99.90;;;;;;5010232;28;20054;-79
2023/05/11 11:55:54;;;;;;;3.20;1.50;;;18.80;99.90;;;;;;4993311;28;20054;-80
2023/05/11 11:58:40;;;;;;;3.30;1.60;;;18.90;99.90;;;;;;5010870;28;20138;-79
2023/05/11 12:01:35;;;;;;;3.33;1.70;;;18.70;99.90;;;;;;4992703;28;20058;-79
2023/05/11 12:04:43;;;;;;;2.95;1.58;;;18.60;99.90;;;;;;5010355;28;20144;-79
2023/05/11 12:07:32;;;;;;;2.35;1.20;;;18.40;99.90;;;;;;5010653;28;20053;-80
2023/05/11 12:10:20;;;;;;;3.92;1.80;;;18.40;99.90;;;;;;5011678;28;20101;-80
2023/05/11 12:13:09;;;;;;;3.55;1.42;;;18.40;99.90;;;;;;4992770;28;20527;-79
2023/05/11 12:16:15;;;;;;;3.33;1.50;;;18.20;99.90;;;;;;5009657;28;20054;-79
2023/05/11 12:19:01;;;;;;;2.95;1.45;;;18.00;99.90;;;;;;4992290;28;20462;-81
2023/05/11 12:21:47;;;;;;;2.60;1.25;;;17.90;99.90;;;;;;5009681;28;20188;-80
2023/05/11 12:24:33;;;;;;;2.88;1.80;;;17.80;99.90;;;;;;4992493;28;20114;-81
2023/05/11 12:27:19;;;;;;;4.40;1.25;;;17.80;99.90;;;;;;5011636;28;20069;-80
2023/05/11 12:30:06;;;;;;;4.75;1.92;;;17.80;99.90;;;;;;4992670;28;20558;-80
2023/05/11 12:32:53;;;;;;;2.70;1.25;;;17.60;99.90;;;;;;5011052;28;20050;-80
2023/05/11 12:35:39;;;;;;;3.33;1.90;;;17.60;99.90;;;;;;4992744;28;20049;-80
2023/05/11 12:38:25;;;;;;;2.63;1.50;;;17.30;99.90;;;;;;5009742;28;20075;-79
2023/05/11 12:41:20;;;;;;;3.72;1.40;;;17.30;99.90;;;;;;4992508;28;20053;-80
2023/05/11 12:44:06;;;;;;;4.13;1.55;;;17.30;99.90;;;;;;5009578;28;20056;-80
2023/05/11 12:46:53;;;;;;;4.30;1.25;;;17.20;99.90;;;;;;4982720;28;20109;-80
2023/05/11 12:49:41;;;;;;;6.22;1.60;;;17.20;99.90;;;;;;5009080;28;20112;-80
2023/05/11 12:52:27;;;;;;;8.32;1.83;;;17.40;99.90;;;;;;4991925;28;20464;-79
2023/05/11 12:55:15;;;;;;;4.78;1.10;;;17.40;99.90;;;;;;5009218;28;20124;-79
2023/05/11 12:58:17;;;;;;;2.17;0.98;;;17.50;99.90;;;;;;4993465;28;20050;-80
2023/05/11 13:01:05;;;;;;;3.05;1.42;;;17.50;99.90;;;;;;5009304;28;20058;-80
2023/05/11 13:03:51;;;;;;;2.25;1.10;;;17.50;99.90;;;;;;4993078;28;20049;-80
2023/05/11 13:06:38;;;;;;;1.70;1.00;;;17.40;99.90;;;;;;5010688;28;20057;-81
2023/05/11 13:09:26;;;;;;;1.98;1.10;;;17.40;99.90;;;;;;4992776;28;20100;-80
2023/05/11 13:12:17;;;;;;;2.15;1.00;;;17.40;99.90;;;;;;5010669;28;20045;-81
2023/05/11 13:15:04;;;;;;;5.18;0.93;;;17.30;99.90;;;;;;4990824;28;20058;-80
2023/05/11 13:18:01;;;;;;;2.50;0.90;;;17.20;99.90;;;;;;4992897;28;20195;-81
2023/05/11 13:20:47;;;;;;;2.05;0.85;;;17.20;99.90;;;;;;4991984;28;20054;-79
2023/05/11 13:23:33;;;;;;;1.95;0.82;;;17.20;99.90;;;;;;5010449;28;20153;-81
2023/05/11 13:26:28;;;;;;;2.17;0.93;;;17.10;99.90;;;;;;4992094;28;20050;-81
2023/05/11 13:29:15;;;;;;;2.20;0.80;;;17.20;99.90;;;;;;4978400;28;20054;-81
2023/05/11 13:32:01;;;;;;;2.45;0.80;;;17.50;99.90;;;;;;5010391;28;20046;-81
2023/05/11 13:34:47;;;;;;;1.55;0.80;;;17.70;99.90;;;;;;4992018;28;20110;-81
2023/05/11 13:37:33;;;;;;;2.30;0.80;;;17.90;99.90;;;;;;5009224;28;20088;-80
2023/05/11 13:40:19;;;;;;;3.08;1.10;;;17.90;99.90;;;;;;5007236;28;20060;-80
2023/05/11 13:43:06;;;;;;;2.90;0.90;;;17.90;99.90;;;;;;5009900;28;20124;-80
2023/05/11 13:45:52;;;;;;;1.60;0.90;;;17.90;99.90;;;;;;4978464;28;20054;-81
2023/05/11 13:48:38;;;;;;;2.72;0.93;;;17.80;99.90;;;;;;5008937;28;20062;-79
2023/05/11 13:51:24;;;;;;;2.38;1.00;;;17.60;99.90;;;;;;5008155;28;20050;-80
2023/05/11 13:54:12;;;;;;;2.33;1.00;;;17.80;99.90;;;;;;4978612;28;20738;-80
2023/05/11 13:56:59;;;;;;;2.13;0.90;;;17.60;99.90;;;;;;4991690;28;20548;-80
2023/05/11 13:59:45;;;;;;;2.80;0.90;;;17.50;99.90;;;;;;4977623;28;20053;-80
2023/05/11 14:02:31;;;;;;;2.28;1.00;;;17.70;99.90;;;;;;4994435;28;20777;-79
2023/05/11 14:05:17;;;;;;;2.20;0.93;;;17.70;99.90;;;;;;5010033;28;20057;-80
2023/05/11 14:08:03;;;;;;;3.92;1.17;;;17.70;99.90;;;;;;5009889;28;20150;-79
2023/05/11 14:10:50;;;;;;;2.55;1.00;;;17.70;99.90;;;;;;5012217;28;20132;-80
2023/05/11 14:13:35;;;;;;;1.52;0.80;;;17.80;99.90;;;;;;5012616;28;20057;-80
2023/05/11 14:16:21;;;;;;;4.03;0.90;;;17.60;99.90;;;;;;5012610;28;20065;-79
2023/05/11 14:19:08;;;;;;;1.48;0.93;;;17.50;99.90;;;;;;4998685;28;20556;-79
2023/05/11 14:21:54;;;;;;;2.88;1.10;;;17.40;99.90;;;;;;5013088;28;20066;-79
2023/05/11 14:24:40;;;;;;;3.65;1.70;;;17.40;99.90;;;;;;5013194;28;20100;-79
2023/05/11 14:27:26;;;;;;;3.08;1.38;;;17.30;99.90;;;;;;5012862;28;20042;-79
2023/05/11 14:30:13;;;;;;;3.65;1.60;;;17.20;99.90;;;;;;5012881;28;20052;-79
2023/05/11 14:32:59;;;;;;;3.10;1.58;;;17.20;99.90;;;;;;5012968;28;20060;-79